Weather History for Madison, SD

Change the Weather History Date:

Wednesday, December 5, 2012

  Actual Average Record
Temperature  
Mean Temperature 34 °F -  
Max Temperature 48 °F 31 °F 48 °F (2012)
Min Temperature 19 °F 13 °F -7 °F (2013)
Degree Days  
Heating Degree Days 32    
Moisture  
Dew Point 20 °F    
Average Humidity 57    
Maximum Humidity 86    
Minimum Humidity 34    
Precipitation  
Precipitation 0.00 in - - ()
Sea Level Pressure  
Sea Level Pressure 29.94 in    
Wind  
Wind Speed 15 mph (SSE)    
Max Wind Speed 25 mph    
Max Gust Speed 32 mph    
Visibility 10 miles    
Events      
Averages and records for this station are not official NWS values.
T = Trace of Precipitation, MM = Missing Value Source: NWS Daily Summary

Daily Weather History Graph

Daily Weather History Graph

Search for Another Location

Airport:

Trip Planner

Search our weather history database for the weather conditions in past years. The results will help you decide how hot, cold, wet, or windy it might be!

Date:

Astronomy

Dec. 05, 2012 Rise Set
Actual Time 7:47 AM CST 4:50 PM CST
Civil Twilight 7:15 AM CST 5:23 PM CST
Nautical Twilight 6:38 AM CST 5:59 PM CST
Astronomical Twilight 6:04 AM CST 6:34 PM CST
Moon 11:52 PM CST (12/5) 12:02 PM CST (12/5)
Length of Visible Light 10h 07m
Length of Day
9h 02m
Waning Gibbous, 59% of the Moon is Illuminated
Dec 5
Waning Gibbous
Dec 6
Last Quarter
Dec 13
New
Dec 19
First Quarter
Dec 28
Full

Hourly Weather History & Observations

Time (CST) Temp. Windchill Dew Point Humidity Pressure Visibility Wind Dir Wind Speed Gust Speed Precip Events Conditions
12:00 AM 21.2 °F 11.7 °F 14.0 °F 74% 30.29 in 10.0 mi ESE 8.1 mph - N/A   Clear
12:20 AM 19.4 °F 9.5 °F 14.0 °F 80% 30.27 in 10.0 mi ESE 8.1 mph - N/A   Partly Cloudy
12:40 AM 19.4 °F 7.9 °F 14.0 °F 80% 30.28 in 10.0 mi ESE 10.4 mph - N/A   Partly Cloudy
1:00 AM 19.4 °F 8.6 °F 14.0 °F 80% 30.26 in 10.0 mi ESE 9.2 mph - N/A   Clear
1:40 AM 19.4 °F 8.6 °F 14.0 °F 80% 30.25 in 10.0 mi ESE 9.2 mph - N/A   Clear
2:00 AM 19.4 °F 7.2 °F 14.0 °F 80% 30.25 in 10.0 mi ESE 11.5 mph - N/A   Clear
2:20 AM 19.4 °F 8.6 °F 14.0 °F 80% 30.24 in 10.0 mi SE 9.2 mph - N/A   Clear
2:40 AM 19.4 °F 8.6 °F 14.0 °F 80% 30.24 in 10.0 mi ESE 9.2 mph - N/A   Clear
3:00 AM 19.4 °F 8.6 °F 14.0 °F 80% 30.23 in 10.0 mi ESE 9.2 mph - N/A   Clear
3:20 AM 19.4 °F 7.2 °F 14.0 °F 80% 30.22 in 10.0 mi SE 11.5 mph - N/A   Clear
3:40 AM 19.4 °F 5.5 °F 12.2 °F 74% 30.21 in 10.0 mi SE 15.0 mph - N/A   Clear
4:00 AM 19.4 °F 5.5 °F 12.2 °F 74% 30.20 in 10.0 mi SE 15.0 mph 21.9 mph N/A   Clear
4:20 AM 19.4 °F 6.0 °F 14.0 °F 80% 30.19 in 10.0 mi SE 13.8 mph 19.6 mph N/A   Clear
4:40 AM 19.4 °F 5.5 °F 14.0 °F 80% 30.18 in 10.0 mi SE 15.0 mph - N/A   Clear
5:00 AM 19.4 °F 6.0 °F 15.8 °F 86% 30.18 in 10.0 mi SSE 13.8 mph - N/A   Clear
5:20 AM 21.2 °F 7.8 °F 15.8 °F 80% 30.16 in 10.0 mi SSE 15.0 mph 21.9 mph N/A   Clear
5:40 AM 21.2 °F 6.4 °F 15.8 °F 80% 30.15 in 10.0 mi SSE 18.4 mph 24.2 mph N/A   Clear
6:00 AM 21.2 °F 5.2 °F 15.8 °F 80% 30.14 in 10.0 mi SSE 21.9 mph 31.1 mph N/A   Clear
6:20 AM 21.2 °F 5.6 °F 15.8 °F 80% 30.13 in 10.0 mi SSE 20.7 mph 26.5 mph N/A   Clear
6:40 AM 21.2 °F 5.6 °F 15.8 °F 80% 30.12 in 10.0 mi SSE 20.7 mph 26.5 mph N/A   Clear
8:20 AM 23.0 °F 6.9 °F 17.6 °F 80% 30.07 in 10.0 mi SSE 24.2 mph 32.2 mph N/A   Clear
8:40 AM 24.8 °F 10.0 °F 17.6 °F 74% 30.06 in 10.0 mi SSE 21.9 mph 29.9 mph N/A   Clear
9:00 AM 24.8 °F 11.1 °F 19.4 °F 80% 30.06 in 10.0 mi SSE 18.4 mph 26.5 mph N/A   Clear
9:20 AM 26.6 °F 13.1 °F 19.4 °F 74% 30.05 in 10.0 mi SSE 19.6 mph 27.6 mph N/A   Clear
9:40 AM 28.4 °F 15.8 °F 19.4 °F 69% 30.04 in 10.0 mi SSE 18.4 mph 28.8 mph N/A   Clear
10:00 AM 30.2 °F 17.1 °F 21.2 °F 69% 30.03 in 10.0 mi South 21.9 mph 29.9 mph N/A   Clear
10:20 AM 32.0 °F 21.2 °F 21.2 °F 64% 30.03 in 10.0 mi South 16.1 mph 26.5 mph N/A   Clear
10:40 AM 33.8 °F 22.2 °F 21.2 °F 60% 30.01 in 10.0 mi South 20.7 mph 26.5 mph N/A   Clear
11:00 AM 35.6 °F 24.5 °F 23.0 °F 60% 29.99 in 10.0 mi South 20.7 mph 27.6 mph N/A   Clear
11:20 AM 35.6 °F 24.2 °F 23.0 °F 60% 29.97 in 10.0 mi SSE 21.9 mph 29.9 mph N/A   Clear
11:40 AM 37.4 °F 26.4 °F 23.0 °F 56% 29.94 in 10.0 mi South 23.0 mph 29.9 mph N/A   Clear
12:00 PM 37.4 °F 27.2 °F 23.0 °F 56% 29.93 in 10.0 mi South 19.6 mph 29.9 mph N/A   Clear
12:20 PM 39.2 °F 28.3 °F 23.0 °F 52% 29.92 in 10.0 mi South 25.3 mph 31.1 mph N/A   Clear
12:40 PM 41.0 °F 31.6 °F 23.0 °F 49% 29.90 in 10.0 mi South 20.7 mph 28.8 mph N/A   Clear
1:00 PM 42.8 °F 33.8 °F 23.0 °F 46% 29.89 in 10.0 mi South 21.9 mph 25.3 mph N/A   Clear
1:20 PM 44.6 °F 37.4 °F 23.0 °F 43% 29.87 in 10.0 mi South 16.1 mph 24.2 mph N/A   Clear
1:40 PM 46.4 °F 38.3 °F 23.0 °F 40% 29.85 in 10.0 mi South 23.0 mph 31.1 mph N/A   Clear
2:00 PM 46.4 °F 37.9 °F 23.0 °F 40% 29.84 in 10.0 mi South 25.3 mph 32.2 mph N/A   Clear
2:20 PM 46.4 °F 38.3 °F 23.0 °F 40% 29.83 in 10.0 mi South 23.0 mph 29.9 mph N/A   Clear
2:40 PM 48.2 °F - 23.0 °F 37% 29.81 in 10.0 mi South 18.4 mph 32.2 mph N/A   Clear
3:00 PM 48.2 °F - 23.0 °F 37% 29.80 in 10.0 mi South 19.6 mph 31.1 mph N/A   Clear
3:20 PM 48.2 °F - 23.0 °F 37% 29.79 in 10.0 mi South 17.3 mph 27.6 mph N/A   Clear
3:40 PM 48.2 °F - 23.0 °F 37% 29.79 in 10.0 mi South 20.7 mph 25.3 mph N/A   Clear
4:00 PM 48.2 °F - 21.2 °F 34% 29.78 in 10.0 mi South 18.4 mph 29.9 mph N/A   Clear
4:20 PM 46.4 °F 39.2 °F 23.0 °F 40% 29.78 in 10.0 mi South 18.4 mph 26.5 mph N/A   Clear
4:40 PM 46.4 °F 39.0 °F 23.0 °F 40% 29.77 in 10.0 mi South 19.6 mph 25.3 mph N/A   Clear
5:00 PM 46.4 °F 40.1 °F 23.0 °F 40% 29.77 in 10.0 mi SSE 15.0 mph 23.0 mph N/A   Clear
5:20 PM 44.6 °F 37.4 °F 23.0 °F 43% 29.76 in 10.0 mi SSE 16.1 mph 20.7 mph N/A   Clear
5:40 PM 44.6 °F 37.2 °F 24.8 °F 46% 29.75 in 10.0 mi South 17.3 mph 24.2 mph N/A   Clear
6:00 PM 44.6 °F 36.6 °F 24.8 °F 46% 29.75 in 10.0 mi South 19.6 mph - N/A   Clear
6:20 PM 42.8 °F 35.1 °F 24.8 °F 49% 29.75 in 10.0 mi SSE 16.1 mph 24.2 mph N/A   Clear
6:40 PM 44.6 °F 37.4 °F 24.8 °F 46% 29.74 in 10.0 mi South 16.1 mph 21.9 mph N/A   Clear
7:00 PM 44.6 °F 36.9 °F 24.8 °F 46% 29.73 in 10.0 mi South 18.4 mph 25.3 mph N/A   Clear
7:20 PM 44.6 °F 37.2 °F 24.8 °F 46% 29.73 in 10.0 mi South 17.3 mph 23.0 mph N/A   Clear
7:40 PM 44.6 °F 36.9 °F 24.8 °F 46% 29.72 in 10.0 mi South 18.4 mph 25.3 mph N/A   Clear
8:00 PM 44.6 °F 37.4 °F 24.8 °F 46% 29.72 in 10.0 mi South 16.1 mph 25.3 mph N/A   Clear
8:20 PM 44.6 °F 37.2 °F 24.8 °F 46% 29.72 in 10.0 mi South 17.3 mph 21.9 mph N/A   Clear
8:40 PM 46.4 °F 39.8 °F 24.8 °F 43% 29.71 in 10.0 mi South 16.1 mph - N/A   Clear
9:00 PM 46.4 °F 40.1 °F 24.8 °F 43% 29.71 in 10.0 mi South 15.0 mph 21.9 mph N/A   Clear
9:20 PM 46.4 °F 39.8 °F 23.0 °F 40% 29.70 in 10.0 mi South 16.1 mph 23.0 mph N/A   Clear
9:40 PM 46.4 °F 39.5 °F 23.0 °F 40% 29.70 in 10.0 mi South 17.3 mph 23.0 mph N/A   Clear
10:00 PM 48.2 °F - 23.0 °F 37% 29.68 in 10.0 mi South 17.3 mph 25.3 mph N/A   Clear
10:20 PM 48.2 °F - 23.0 °F 37% 29.68 in 10.0 mi SSW 19.6 mph 27.6 mph N/A   Clear
10:40 PM 48.2 °F - 23.0 °F 37% 29.68 in 10.0 mi South 18.4 mph 25.3 mph N/A   Clear
11:00 PM 48.2 °F - 23.0 °F 37% 29.69 in 10.0 mi South 16.1 mph 27.6 mph N/A   Clear
11:20 PM 48.2 °F - 23.0 °F 37% 29.69 in 10.0 mi South 17.3 mph 20.7 mph N/A   Scattered Clouds
11:40 PM 48.2 °F - 23.0 °F 37% 29.69 in 10.0 mi SSW 13.8 mph - N/A   Scattered Clouds